sensor_id;sensor_type;location;lat;lon;timestamp;pressure;altitude;pressure_sealevel;temperature;humidity
22649;BME280;11491;41.942;24.220;2023-04-05T00:01:34;89029.28;;;3.93;86.71
22649;BME280;11491;41.942;24.220;2023-04-05T00:04:02;89034.75;;;3.88;87.53
22649;BME280;11491;41.942;24.220;2023-04-05T00:06:30;89024.88;;;3.97;87.63
22649;BME280;11491;41.942;24.220;2023-04-05T00:08:57;89035.22;;;3.90;87.23
22649;BME280;11491;41.942;24.220;2023-04-05T00:11:25;89029.53;;;4.00;87.57
22649;BME280;11491;41.942;24.220;2023-04-05T00:13:54;89024.88;;;3.97;87.37
22649;BME280;11491;41.942;24.220;2023-04-05T00:16:21;89029.53;;;4.00;87.46
22649;BME280;11491;41.942;24.220;2023-04-05T00:18:48;89022.16;;;3.85;87.48
22649;BME280;11491;41.942;24.220;2023-04-05T00:21:16;89022.41;;;3.92;87.03
22649;BME280;11491;41.942;24.220;2023-04-05T00:23:42;89024.88;;;3.97;86.17
22649;BME280;11491;41.942;24.220;2023-04-05T00:26:10;89023.28;;;3.84;86.64
22649;BME280;11491;41.942;24.220;2023-04-05T00:28:37;89019.53;;;3.85;87.57
22649;BME280;11491;41.942;24.220;2023-04-05T00:31:05;89023.72;;;3.86;87.07
22649;BME280;11491;41.942;24.220;2023-04-05T00:33:32;89017.72;;;3.77;86.03
22649;BME280;11491;41.942;24.220;2023-04-05T00:36:07;89024.31;;;3.71;85.50
22649;BME280;11491;41.942;24.220;2023-04-05T00:38:34;89026.31;;;3.74;85.06
22649;BME280;11491;41.942;24.220;2023-04-05T00:41:01;89027.41;;;3.73;84.99
22649;BME280;11491;41.942;24.220;2023-04-05T00:43:28;89029.53;;;3.58;85.97
22649;BME280;11491;41.942;24.220;2023-04-05T00:45:55;89024.50;;;3.44;87.09
22649;BME280;11491;41.942;24.220;2023-04-05T00:48:23;89020.44;;;3.47;86.77
22649;BME280;11491;41.942;24.220;2023-04-05T00:50:51;89029.34;;;3.63;85.46
22649;BME280;11491;41.942;24.220;2023-04-05T00:53:18;89034.94;;;3.62;85.62
22649;BME280;11491;41.942;24.220;2023-04-05T00:55:45;89014.94;;;3.52;85.27
22649;BME280;11491;41.942;24.220;2023-04-05T00:58:13;89023.59;;;3.61;84.92
22649;BME280;11491;41.942;24.220;2023-04-05T01:00:48;89023.72;;;3.44;85.44
22649;BME280;11491;41.942;24.220;2023-04-05T01:03:18;89022.81;;;3.40;86.45
22649;BME280;11491;41.942;24.220;2023-04-05T01:05:56;89026.81;;;3.46;86.76
22649;BME280;11491;41.942;24.220;2023-04-05T01:08:33;89029.94;;;3.48;86.72
22649;BME280;11491;41.942;24.220;2023-04-05T01:11:04;89026.28;;;3.32;86.54
22649;BME280;11491;41.942;24.220;2023-04-05T01:13:32;89025.97;;;3.33;86.40
22649;BME280;11491;41.942;24.220;2023-04-05T01:15:59;89027.06;;;3.32;86.58
22649;BME280;11491;41.942;24.220;2023-04-05T01:18:26;89031.84;;;3.39;86.80
22649;BME280;11491;41.942;24.220;2023-04-05T01:21:20;89034.66;;;3.34;87.23
22649;BME280;11491;41.942;24.220;2023-04-05T01:23:59;89041.19;;;3.36;86.99
22649;BME280;11491;41.942;24.220;2023-04-05T01:26:50;89041.22;;;3.28;87.49
22649;BME280;11491;41.942;24.220;2023-04-05T01:29:53;89038.38;;;3.33;87.68
22649;BME280;11491;41.942;24.220;2023-04-05T01:32:34;89040.34;;;3.44;87.47
22649;BME280;11491;41.942;24.220;2023-04-05T01:35:09;89036.97;;;3.35;88.00
22649;BME280;11491;41.942;24.220;2023-04-05T01:37:44;89039.81;;;3.30;88.18
22649;BME280;11491;41.942;24.220;2023-04-05T01:40:12;89036.09;;;3.31;88.65
22649;BME280;11491;41.942;24.220;2023-04-05T01:42:39;89042.13;;;3.32;87.95
22649;BME280;11491;41.942;24.220;2023-04-05T01:45:08;89039.31;;;3.37;88.16
22649;BME280;11491;41.942;24.220;2023-04-05T01:47:35;89036.22;;;3.35;87.58
22649;BME280;11491;41.942;24.220;2023-04-05T01:50:02;89047.16;;;3.24;87.95
22649;BME280;11491;41.942;24.220;2023-04-05T01:52:28;89045.63;;;3.23;87.79
22649;BME280;11491;41.942;24.220;2023-04-05T01:54:55;89058.00;;;3.32;87.38
22649;BME280;11491;41.942;24.220;2023-04-05T01:57:22;89055.53;;;3.27;87.53
22649;BME280;11491;41.942;24.220;2023-04-05T01:59:49;89047.78;;;3.21;87.84
22649;BME280;11491;41.942;24.220;2023-04-05T02:02:17;89055.53;;;3.27;88.45
22649;BME280;11491;41.942;24.220;2023-04-05T02:04:44;89053.72;;;3.18;89.64
22649;BME280;11491;41.942;24.220;2023-04-05T02:07:10;89051.38;;;3.17;89.93
22649;BME280;11491;41.942;24.220;2023-04-05T02:09:37;89058.75;;;3.32;89.60
22649;BME280;11491;41.942;24.220;2023-04-05T02:12:04;89054.69;;;3.35;88.73
22649;BME280;11491;41.942;24.220;2023-04-05T02:14:31;89053.09;;;3.42;87.51
22649;BME280;11491;41.942;24.220;2023-04-05T02:16:57;89051.06;;;3.48;87.00
22649;BME280;11491;41.942;24.220;2023-04-05T02:19:28;89055.06;;;3.54;86.92
22649;BME280;11491;41.942;24.220;2023-04-05T02:22:01;89044.47;;;3.54;86.38
22649;BME280;11491;41.942;24.220;2023-04-05T02:24:28;89058.44;;;3.63;86.48
22649;BME280;11491;41.942;24.220;2023-04-05T02:26:55;89053.72;;;3.48;86.59
22649;BME280;11491;41.942;24.220;2023-04-05T02:29:22;89044.22;;;3.47;87.09
22649;BME280;11491;41.942;24.220;2023-04-05T02:31:49;89052.88;;;3.56;87.84
22649;BME280;11491;41.942;24.220;2023-04-05T02:34:15;89048.94;;;3.62;87.57
22649;BME280;11491;41.942;24.220;2023-04-05T02:36:44;89060.59;;;3.61;87.23
22649;BME280;11491;41.942;24.220;2023-04-05T02:39:11;89059.97;;;3.64;86.39
22649;BME280;11491;41.942;24.220;2023-04-05T02:41:38;89047.59;;;3.56;87.18
22649;BME280;11491;41.942;24.220;2023-04-05T02:44:05;89057.50;;;3.59;88.20
22649;BME280;11491;41.942;24.220;2023-04-05T02:46:32;89051.56;;;3.62;88.83
22649;BME280;11491;41.942;24.220;2023-04-05T02:48:58;89050.94;;;3.65;87.81
22649;BME280;11491;41.942;24.220;2023-04-05T02:51:25;89048.50;;;3.60;87.04
22649;BME280;11491;41.942;24.220;2023-04-05T02:53:53;89044.09;;;3.64;87.49
22649;BME280;11491;41.942;24.220;2023-04-05T02:56:20;89040.81;;;3.67;87.69
22649;BME280;11491;41.942;24.220;2023-04-05T02:58:47;89050.31;;;3.69;87.88
22649;BME280;11491;41.942;24.220;2023-04-05T03:01:14;89054.28;;;3.75;86.99
22649;BME280;11491;41.942;24.220;2023-04-05T03:03:42;89045.94;;;3.73;86.65
22649;BME280;11491;41.942;24.220;2023-04-05T03:06:09;89057.78;;;3.66;86.84
22649;BME280;11491;41.942;24.220;2023-04-05T03:08:36;89051.69;;;3.45;87.79
22649;BME280;11491;41.942;24.220;2023-04-05T03:11:05;89054.53;;;3.40;88.87
22649;BME280;11491;41.942;24.220;2023-04-05T03:13:32;89059.53;;;3.33;88.79
22649;BME280;11491;41.942;24.220;2023-04-05T03:15:59;89058.06;;;3.44;88.00
22649;BME280;11491;41.942;24.220;2023-04-05T03:18:25;89063.91;;;3.58;88.12
22649;BME280;11491;41.942;24.220;2023-04-05T03:20:54;89055.19;;;3.58;87.05
22649;BME280;11491;41.942;24.220;2023-04-05T03:23:22;89059.97;;;3.64;87.76
22649;BME280;11491;41.942;24.220;2023-04-05T03:25:53;89052.94;;;3.69;87.62
22649;BME280;11491;41.942;24.220;2023-04-05T03:28:23;89060.72;;;3.65;88.19
22649;BME280;11491;41.942;24.220;2023-04-05T03:30:50;89054.69;;;3.64;88.57
22649;BME280;11491;41.942;24.220;2023-04-05T03:33:17;89050.31;;;3.69;88.00
22649;BME280;11491;41.942;24.220;2023-04-05T03:35:44;89056.72;;;3.80;88.27
22649;BME280;11491;41.942;24.220;2023-04-05T03:38:11;89054.47;;;3.70;88.64
22649;BME280;11491;41.942;24.220;2023-04-05T03:40:38;89054.28;;;3.75;88.99
22649;BME280;11491;41.942;24.220;2023-04-05T03:43:05;89052.88;;;3.77;88.53
22649;BME280;11491;41.942;24.220;2023-04-05T03:45:33;89057.38;;;3.77;88.31
22649;BME280;11491;41.942;24.220;2023-04-05T03:48:00;89066.94;;;3.90;87.96
22649;BME280;11491;41.942;24.220;2023-04-05T03:50:27;89061.00;;;3.72;88.10
22649;BME280;11491;41.942;24.220;2023-04-05T03:52:54;89056.50;;;3.73;87.66
22649;BME280;11491;41.942;24.220;2023-04-05T03:55:21;89055.50;;;3.56;88.00
22649;BME280;11491;41.942;24.220;2023-04-05T03:57:47;89062.94;;;3.63;87.51
22649;BME280;11491;41.942;24.220;2023-04-05T04:00:15;89066.59;;;3.50;87.49
22649;BME280;11491;41.942;24.220;2023-04-05T04:02:44;89066.66;;;3.41;87.93
22649;BME280;11491;41.942;24.220;2023-04-05T04:05:11;89074.13;;;3.39;88.13
22649;BME280;11491;41.942;24.220;2023-04-05T04:07:39;89068.06;;;3.38;88.59
22649;BME280;11491;41.942;24.220;2023-04-05T04:10:08;89072.53;;;3.47;88.22
22649;BME280;11491;41.942;24.220;2023-04-05T04:12:35;89085.84;;;3.50;87.40
22649;BME280;11491;41.942;24.220;2023-04-05T04:15:03;89074.75;;;3.36;86.98
22649;BME280;11491;41.942;24.220;2023-04-05T04:17:32;89083.13;;;3.38;86.65
22649;BME280;11491;41.942;24.220;2023-04-05T04:20:01;89085.34;;;3.36;85.87
22649;BME280;11491;41.942;24.220;2023-04-05T04:22:32;89084.59;;;3.27;85.50
22649;BME280;11491;41.942;24.220;2023-04-05T04:24:58;89089.31;;;3.12;85.97
22649;BME280;11491;41.942;24.220;2023-04-05T04:27:28;89092.13;;;3.16;86.07
22649;BME280;11491;41.942;24.220;2023-04-05T04:29:55;89092.44;;;3.14;86.11
22649;BME280;11491;41.942;24.220;2023-04-05T04:32:27;89096.97;;;3.05;85.54
22649;BME280;11491;41.942;24.220;2023-04-05T04:35:14;89103.66;;;3.02;86.12
22649;BME280;11491;41.942;24.220;2023-04-05T04:37:44;89103.03;;;3.06;86.57
22649;BME280;11491;41.942;24.220;2023-04-05T04:40:12;89098.25;;;2.99;85.56
22649;BME280;11491;41.942;24.220;2023-04-05T04:42:42;89085.84;;;2.91;86.49
22649;BME280;11491;41.942;24.220;2023-04-05T04:45:11;89104.00;;;3.01;86.23
22649;BME280;11491;41.942;24.220;2023-04-05T04:47:41;89114.72;;;2.96;86.76
22649;BME280;11491;41.942;24.220;2023-04-05T04:50:08;89106.00;;;3.04;86.58
22649;BME280;11491;41.942;24.220;2023-04-05T04:52:37;89102.59;;;2.95;86.62
22649;BME280;11491;41.942;24.220;2023-04-05T04:55:06;89100.06;;;3.07;86.71
22649;BME280;11491;41.942;24.220;2023-04-05T04:57:33;89110.09;;;3.22;86.48
22649;BME280;11491;41.942;24.220;2023-04-05T05:00:00;89111.00;;;3.27;85.44
22649;BME280;11491;41.942;24.220;2023-04-05T05:02:31;89109.91;;;3.28;85.44
22649;BME280;11491;41.942;24.220;2023-04-05T05:04:58;89128.22;;;3.33;84.82
22649;BME280;11491;41.942;24.220;2023-04-05T05:07:25;89118.75;;;3.32;84.30
22649;BME280;11491;41.942;24.220;2023-04-05T05:09:53;89129.22;;;3.19;84.23
22649;BME280;11491;41.942;24.220;2023-04-05T05:12:20;89129.22;;;3.19;84.11
22649;BME280;11491;41.942;24.220;2023-04-05T05:14:47;89134.50;;;3.19;84.75
22649;BME280;11491;41.942;24.220;2023-04-05T05:17:14;89129.22;;;3.19;84.86
22649;BME280;11491;41.942;24.220;2023-04-05T05:19:41;89135.91;;;3.26;83.84
22649;BME280;11491;41.942;24.220;2023-04-05T05:22:08;89136.50;;;3.22;83.34
22649;BME280;11491;41.942;24.220;2023-04-05T05:24:34;89145.72;;;3.16;84.12
22649;BME280;11491;41.942;24.220;2023-04-05T05:27:03;89140.72;;;3.23;84.05
22649;BME280;11491;41.942;24.220;2023-04-05T05:29:30;89144.25;;;3.28;83.82
22649;BME280;11491;41.942;24.220;2023-04-05T05:31:57;89142.53;;;3.32;83.79
22649;BME280;11491;41.942;24.220;2023-04-05T05:34:23;89146.00;;;3.23;83.99
22649;BME280;11491;41.942;24.220;2023-04-05T05:36:50;89137.25;;;3.32;84.12
22649;BME280;11491;41.942;24.220;2023-04-05T05:39:17;89153.84;;;3.41;83.65
22649;BME280;11491;41.942;24.220;2023-04-05T05:41:44;89148.09;;;3.39;83.80
22649;BME280;11491;41.942;24.220;2023-04-05T05:44:13;89148.88;;;3.39;83.38
22649;BME280;11491;41.942;24.220;2023-04-05T05:46:39;89145.94;;;3.41;82.69
22649;BME280;11491;41.942;24.220;2023-04-05T05:49:06;89135.06;;;3.34;82.49
22649;BME280;11491;41.942;24.220;2023-04-05T05:51:33;89156.59;;;3.53;82.20
22649;BME280;11491;41.942;24.220;2023-04-05T05:54:00;89154.25;;;3.60;81.62
22649;BME280;11491;41.942;24.220;2023-04-05T05:56:27;89151.84;;;3.67;82.01
22649;BME280;11491;41.942;24.220;2023-04-05T05:58:54;89143.28;;;3.71;81.92
22649;BME280;11491;41.942;24.220;2023-04-05T06:01:22;89146.13;;;3.65;82.16
22649;BME280;11491;41.942;24.220;2023-04-05T06:03:52;89149.28;;;3.50;82.28
22649;BME280;11491;41.942;24.220;2023-04-05T06:06:19;89151.84;;;3.67;82.73
22649;BME280;11491;41.942;24.220;2023-04-05T06:08:46;89151.94;;;3.80;82.51
22649;BME280;11491;41.942;24.220;2023-04-05T06:11:17;89154.38;;;3.85;81.34
22649;BME280;11491;41.942;24.220;2023-04-05T06:13:44;89160.59;;;3.89;81.14
22649;BME280;11491;41.942;24.220;2023-04-05T06:16:11;89160.78;;;3.84;80.15
22649;BME280;11491;41.942;24.220;2023-04-05T06:18:40;89162.00;;;3.86;79.66
22649;BME280;11491;41.942;24.220;2023-04-05T06:21:07;89163.63;;;4.00;78.75
22649;BME280;11491;41.942;24.220;2023-04-05T06:23:33;89156.75;;;4.07;79.47
22649;BME280;11491;41.942;24.220;2023-04-05T06:26:01;89163.19;;;4.19;79.23
22649;BME280;11491;41.942;24.220;2023-04-05T06:28:27;89173.66;;;4.36;78.85
22649;BME280;11491;41.942;24.220;2023-04-05T06:30:56;89165.53;;;4.41;79.17
22649;BME280;11491;41.942;24.220;2023-04-05T06:33:23;89172.88;;;4.57;78.74
22649;BME280;11491;41.942;24.220;2023-04-05T06:35:51;89174.44;;;4.58;76.59
22649;BME280;11491;41.942;24.220;2023-04-05T06:38:18;89167.47;;;4.53;78.42
22649;BME280;11491;41.942;24.220;2023-04-05T06:40:45;89167.81;;;4.64;78.15
22649;BME280;11491;41.942;24.220;2023-04-05T06:43:12;89170.47;;;4.64;77.70
22649;BME280;11491;41.942;24.220;2023-04-05T06:45:38;89141.25;;;4.39;78.26
22649;BME280;11491;41.942;24.220;2023-04-05T06:48:06;89175.78;;;4.64;77.78
22649;BME280;11491;41.942;24.220;2023-04-05T06:50:33;89181.28;;;4.59;75.10
22649;BME280;11491;41.942;24.220;2023-04-05T06:53:01;89181.16;;;4.55;76.96
22649;BME280;11491;41.942;24.220;2023-04-05T06:55:29;89191.75;;;4.55;75.70
22649;BME280;11491;41.942;24.220;2023-04-05T06:57:55;89189.16;;;4.46;75.50
22649;BME280;11491;41.942;24.220;2023-04-05T07:00:22;89190.06;;;4.50;76.41
22649;BME280;11491;41.942;24.220;2023-04-05T07:02:49;89191.47;;;4.69;75.77
22649;BME280;11491;41.942;24.220;2023-04-05T07:05:16;89197.41;;;4.66;76.84
22649;BME280;11491;41.942;24.220;2023-04-05T07:07:43;89198.16;;;4.87;77.77
22649;BME280;11491;41.942;24.220;2023-04-05T07:10:13;89194.75;;;4.99;76.58
22649;BME280;11491;41.942;24.220;2023-04-05T07:12:40;89198.25;;;5.12;77.67
22649;BME280;11491;41.942;24.220;2023-04-05T07:15:08;89206.88;;;5.21;78.74
22649;BME280;11491;41.942;24.220;2023-04-05T07:17:35;89198.94;;;5.33;78.18
22649;BME280;11491;41.942;24.220;2023-04-05T07:20:04;89199.53;;;5.51;77.46
22649;BME280;11491;41.942;24.220;2023-04-05T07:22:32;89204.50;;;5.53;76.53
22649;BME280;11491;41.942;24.220;2023-04-05T07:25:00;89206.84;;;5.54;75.77
22649;BME280;11491;41.942;24.220;2023-04-05T07:27:29;89211.53;;;5.36;76.54
22649;BME280;11491;41.942;24.220;2023-04-05T07:29:56;89202.97;;;5.39;76.32
22649;BME280;11491;41.942;24.220;2023-04-05T07:32:22;89215.81;;;5.62;76.99
22649;BME280;11491;41.942;24.220;2023-04-05T07:34:49;89206.88;;;5.67;77.08
22649;BME280;11491;41.942;24.220;2023-04-05T07:37:16;89216.69;;;5.66;74.05
22649;BME280;11491;41.942;24.220;2023-04-05T07:39:43;89219.72;;;5.44;70.79
22649;BME280;11491;41.942;24.220;2023-04-05T07:42:09;89219.88;;;5.47;73.96
22649;BME280;11491;41.942;24.220;2023-04-05T07:44:38;89223.28;;;5.48;72.93
22649;BME280;11491;41.942;24.220;2023-04-05T07:47:04;89216.25;;;5.52;73.43
22649;BME280;11491;41.942;24.220;2023-04-05T07:49:31;89218.69;;;5.57;73.02
22649;BME280;11491;41.942;24.220;2023-04-05T07:51:58;89206.94;;;5.46;74.24
22649;BME280;11491;41.942;24.220;2023-04-05T07:54:25;89221.31;;;5.45;73.87
22649;BME280;11491;41.942;24.220;2023-04-05T07:56:52;89230.50;;;5.59;74.37
22649;BME280;11491;41.942;24.220;2023-04-05T07:59:19;89220.69;;;5.72;75.80
22649;BME280;11491;41.942;24.220;2023-04-05T08:01:47;89230.19;;;5.86;73.34
22649;BME280;11491;41.942;24.220;2023-04-05T08:04:14;89230.63;;;5.75;73.08
22649;BME280;11491;41.942;24.220;2023-04-05T08:06:41;89242.31;;;5.62;74.01
22649;BME280;11491;41.942;24.220;2023-04-05T08:09:09;89237.88;;;5.42;73.07
22649;BME280;11491;41.942;24.220;2023-04-05T08:11:36;89236.47;;;5.23;72.68
22649;BME280;11491;41.942;24.220;2023-04-05T08:14:03;89235.78;;;5.14;75.16
22649;BME280;11491;41.942;24.220;2023-04-05T08:16:30;89243.09;;;5.17;74.81
22649;BME280;11491;41.942;24.220;2023-04-05T08:18:59;89241.69;;;4.99;73.52
22649;BME280;11491;41.942;24.220;2023-04-05T08:21:26;89242.84;;;4.89;78.33
22649;BME280;11491;41.942;24.220;2023-04-05T08:23:53;89237.31;;;5.03;77.60
22649;BME280;11491;41.942;24.220;2023-04-05T08:26:19;89244.88;;;5.25;78.54
22649;BME280;11491;41.942;24.220;2023-04-05T08:28:47;89248.03;;;5.39;77.96
22649;BME280;11491;41.942;24.220;2023-04-05T08:31:13;89251.78;;;5.51;75.55
22649;BME280;11491;41.942;24.220;2023-04-05T08:33:40;89250.00;;;5.43;75.71
22649;BME280;11491;41.942;24.220;2023-04-05T08:36:09;89250.44;;;5.32;78.12
22649;BME280;11491;41.942;24.220;2023-04-05T08:38:36;89254.06;;;5.28;77.24
22649;BME280;11491;41.942;24.220;2023-04-05T08:41:07;89263.03;;;5.35;77.43
22649;BME280;11491;41.942;24.220;2023-04-05T08:43:44;89262.56;;;5.33;77.20
22649;BME280;11491;41.942;24.220;2023-04-05T08:46:14;89260.13;;;5.28;75.92
22649;BME280;11491;41.942;24.220;2023-04-05T08:48:42;89257.81;;;5.27;76.88
22649;BME280;11491;41.942;24.220;2023-04-05T08:51:10;89262.31;;;5.26;76.64
22649;BME280;11491;41.942;24.220;2023-04-05T08:53:37;89246.84;;;5.16;77.61
22649;BME280;11491;41.942;24.220;2023-04-05T08:56:04;89267.00;;;5.29;78.00
22649;BME280;11491;41.942;24.220;2023-04-05T08:58:34;89262.41;;;5.51;75.55
22649;BME280;11491;41.942;24.220;2023-04-05T09:01:03;89258.41;;;5.45;75.71
22649;BME280;11491;41.942;24.220;2023-04-05T09:03:35;89269.13;;;5.48;76.76
22649;BME280;11491;41.942;24.220;2023-04-05T09:06:05;89274.81;;;5.59;77.55
22649;BME280;11491;41.942;24.220;2023-04-05T09:08:34;89272.81;;;5.68;77.63
22649;BME280;11491;41.942;24.220;2023-04-05T09:11:01;89280.75;;;5.56;75.81
22649;BME280;11491;41.942;24.220;2023-04-05T09:13:28;89279.06;;;5.51;75.40
22649;BME280;11491;41.942;24.220;2023-04-05T09:15:55;89281.66;;;5.60;76.71
22649;BME280;11491;41.942;24.220;2023-04-05T09:18:22;89280.81;;;5.80;75.98
22649;BME280;11491;41.942;24.220;2023-04-05T09:20:49;89282.91;;;5.75;75.75
22649;BME280;11491;41.942;24.220;2023-04-05T09:23:16;89277.03;;;5.69;73.96
22649;BME280;11491;41.942;24.220;2023-04-05T09:25:44;89282.31;;;5.57;75.86
22649;BME280;11491;41.942;24.220;2023-04-05T09:28:12;89276.09;;;5.53;72.87
22649;BME280;11491;41.942;24.220;2023-04-05T09:30:44;89271.25;;;5.55;76.26
22649;BME280;11491;41.942;24.220;2023-04-05T09:33:14;89273.19;;;5.79;76.03
22649;BME280;11491;41.942;24.220;2023-04-05T09:35:44;89284.16;;;5.56;74.40
22649;BME280;11491;41.942;24.220;2023-04-05T09:38:10;89273.91;;;5.55;75.61
22649;BME280;11491;41.942;24.220;2023-04-05T09:40:42;89286.28;;;5.63;75.12
22649;BME280;11491;41.942;24.220;2023-04-05T09:43:11;89295.19;;;5.79;74.68
22649;BME280;11491;41.942;24.220;2023-04-05T09:45:38;89278.66;;;5.95;73.41
22649;BME280;11491;41.942;24.220;2023-04-05T09:48:06;89285.69;;;5.91;72.85
22649;BME280;11491;41.942;24.220;2023-04-05T09:50:33;89279.13;;;5.76;73.50
22649;BME280;11491;41.942;24.220;2023-04-05T09:53:08;89281.97;;;5.58;71.23
22649;BME280;11491;41.942;24.220;2023-04-05T09:55:35;89278.97;;;5.48;72.40
22649;BME280;11491;41.942;24.220;2023-04-05T09:58:02;89278.78;;;5.65;73.50
22649;BME280;11491;41.942;24.220;2023-04-05T10:00:31;89278.78;;;5.65;72.53
22649;BME280;11491;41.942;24.220;2023-04-05T10:02:58;89271.22;;;5.43;74.44
22649;BME280;11491;41.942;24.220;2023-04-05T10:05:26;89286.47;;;5.46;73.99
22649;BME280;11491;41.942;24.220;2023-04-05T10:07:54;89282.03;;;5.37;70.95
22649;BME280;11491;41.942;24.220;2023-04-05T10:10:22;89282.59;;;5.43;74.43
22649;BME280;11491;41.942;24.220;2023-04-05T10:12:49;89281.81;;;5.43;74.17
22649;BME280;11491;41.942;24.220;2023-04-05T10:15:17;89284.94;;;5.45;73.08
22649;BME280;11491;41.942;24.220;2023-04-05T10:17:51;89291.25;;;5.52;73.58
22649;BME280;11491;41.942;24.220;2023-04-05T10:20:21;89286.97;;;5.60;72.27
22649;BME280;11491;41.942;24.220;2023-04-05T10:22:58;89287.88;;;5.64;71.82
22649;BME280;11491;41.942;24.220;2023-04-05T10:25:38;89286.38;;;5.42;72.08
22649;BME280;11491;41.942;24.220;2023-04-05T10:28:09;89258.75;;;5.10;70.10
22649;BME280;11491;41.942;24.220;2023-04-05T10:30:45;89283.91;;;5.37;73.38
22649;BME280;11491;41.942;24.220;2023-04-05T10:33:19;89284.47;;;5.43;72.86
22649;BME280;11491;41.942;24.220;2023-04-05T10:35:55;89286.59;;;5.49;72.26
22649;BME280;11491;41.942;24.220;2023-04-05T10:38:27;89289.56;;;5.48;71.38
22649;BME280;11491;41.942;24.220;2023-04-05T10:40:58;89299.69;;;5.33;71.41
22649;BME280;11491;41.942;24.220;2023-04-05T10:43:28;89298.66;;;5.26;71.17
22649;BME280;11491;41.942;24.220;2023-04-05T10:45:58;89306.41;;;5.31;73.20
22649;BME280;11491;41.942;24.220;2023-04-05T10:48:35;89290.66;;;5.34;70.97
22649;BME280;11491;41.942;24.220;2023-04-05T10:51:03;89300.13;;;5.35;71.95
22649;BME280;11491;41.942;24.220;2023-04-05T10:53:30;89288.41;;;5.24;72.59
22649;BME280;11491;41.942;24.220;2023-04-05T10:56:00;89289.28;;;5.28;69.96
22649;BME280;11491;41.942;24.220;2023-04-05T10:58:28;89290.75;;;5.38;72.40
22649;BME280;11491;41.942;24.220;2023-04-05T11:00:56;89290.91;;;5.42;69.56
22649;BME280;11491;41.942;24.220;2023-04-05T11:03:51;89291.63;;;5.30;71.26
22649;BME280;11491;41.942;24.220;2023-04-05T11:06:23;89297.97;;;5.50;70.13
22649;BME280;11491;41.942;24.220;2023-04-05T11:08:58;89294.66;;;5.53;70.92
22649;BME280;11491;41.942;24.220;2023-04-05T11:11:25;89296.13;;;5.63;72.29
22649;BME280;11491;41.942;24.220;2023-04-05T11:13:53;89300.66;;;5.62;68.26
22649;BME280;11491;41.942;24.220;2023-04-05T11:16:21;89287.31;;;5.71;71.32
22649;BME280;11491;41.942;24.220;2023-04-05T11:18:50;89295.25;;;6.41;69.11
22649;BME280;11491;41.942;24.220;2023-04-05T11:21:22;89293.25;;;6.62;68.46
22649;BME280;11491;41.942;24.220;2023-04-05T11:24:03;89290.53;;;6.99;67.39
22649;BME280;11491;41.942;24.220;2023-04-05T11:26:52;89274.81;;;7.06;65.70
22649;BME280;11491;41.942;24.220;2023-04-05T11:29:46;89281.44;;;7.00;67.06
22649;BME280;11491;41.942;24.220;2023-04-05T11:32:16;89285.59;;;6.85;67.55
22649;BME280;11491;41.942;24.220;2023-04-05T11:34:57;89289.91;;;6.90;66.24
22649;BME280;11491;41.942;24.220;2023-04-05T11:37:54;89279.72;;;6.92;65.55
22649;BME280;11491;41.942;24.220;2023-04-05T11:40:27;89283.50;;;6.79;68.63
22649;BME280;11491;41.942;24.220;2023-04-05T11:42:58;89285.91;;;6.96;65.77
22649;BME280;11491;41.942;24.220;2023-04-05T11:45:25;89290.47;;;6.96;67.64
22649;BME280;11491;41.942;24.220;2023-04-05T11:47:52;89286.56;;;6.93;65.32
22649;BME280;11491;41.942;24.220;2023-04-05T11:50:21;89284.59;;;6.78;67.24
22649;BME280;11491;41.942;24.220;2023-04-05T11:53:06;89289.91;;;6.78;67.92
22649;BME280;11491;41.942;24.220;2023-04-05T11:55:33;89284.38;;;6.71;65.13
22649;BME280;11491;41.942;24.220;2023-04-05T11:58:00;89268.06;;;6.32;68.13
22649;BME280;11491;41.942;24.220;2023-04-05T12:00:27;89290.84;;;6.20;68.73
22649;BME280;11491;41.942;24.220;2023-04-05T12:02:54;89289.84;;;6.25;70.37
22649;BME280;11491;41.942;24.220;2023-04-05T12:05:22;89300.81;;;6.11;70.41
22649;BME280;11491;41.942;24.220;2023-04-05T12:07:51;89279.59;;;5.90;69.63
22649;BME280;11491;41.942;24.220;2023-04-05T12:10:18;89296.63;;;5.77;70.77
22649;BME280;11491;41.942;24.220;2023-04-05T12:12:45;89298.28;;;5.81;70.05
22649;BME280;11491;41.942;24.220;2023-04-05T12:15:14;89294.00;;;5.89;72.05
22649;BME280;11491;41.942;24.220;2023-04-05T12:17:47;89306.66;;;5.83;70.67
22649;BME280;11491;41.942;24.220;2023-04-05T12:20:16;89305.78;;;5.67;71.78
22649;BME280;11491;41.942;24.220;2023-04-05T12:22:46;89298.16;;;5.32;72.86
22649;BME280;11491;41.942;24.220;2023-04-05T12:25:14;89306.28;;;5.27;74.05
22649;BME280;11491;41.942;24.220;2023-04-05T12:27:41;89303.34;;;5.08;74.52
22649;BME280;11491;41.942;24.220;2023-04-05T12:30:10;89305.28;;;4.99;75.38
22649;BME280;11491;41.942;24.220;2023-04-05T12:32:40;89303.13;;;4.71;77.24
22649;BME280;11491;41.942;24.220;2023-04-05T12:35:10;89311.56;;;4.64;77.60
22649;BME280;11491;41.942;24.220;2023-04-05T12:37:38;89307.91;;;4.27;78.93
22649;BME280;11491;41.942;24.220;2023-04-05T12:40:08;89313.19;;;4.27;78.97
22649;BME280;11491;41.942;24.220;2023-04-05T12:42:35;89313.91;;;4.06;78.54
22649;BME280;11491;41.942;24.220;2023-04-05T12:45:08;89323.19;;;3.83;80.35
22649;BME280;11491;41.942;24.220;2023-04-05T12:47:35;89325.44;;;3.63;82.08
22649;BME280;11491;41.942;24.220;2023-04-05T12:50:12;89322.53;;;3.39;83.09
22649;BME280;11491;41.942;24.220;2023-04-05T12:52:51;89327.50;;;3.32;83.99
22649;BME280;11491;41.942;24.220;2023-04-05T12:55:19;89321.78;;;3.21;84.28
22649;BME280;11491;41.942;24.220;2023-04-05T12:57:54;89323.03;;;3.06;84.35
22649;BME280;11491;41.942;24.220;2023-04-05T13:00:24;89324.09;;;2.88;86.25
22649;BME280;11491;41.942;24.220;2023-04-05T13:02:52;89318.50;;;2.80;87.65
22649;BME280;11491;41.942;24.220;2023-04-05T13:05:21;89325.66;;;2.89;88.04
22649;BME280;11491;41.942;24.220;2023-04-05T13:07:48;89331.72;;;2.98;88.26
22649;BME280;11491;41.942;24.220;2023-04-05T13:10:15;89326.28;;;3.12;88.23